createdAt,value
2023-03-05T00:04:18.979Z,4147
2023-03-05T00:10:08.682Z,4146.5
2023-03-05T00:15:44.513Z,4146.5
2023-03-05T00:21:23.088Z,4141.3
2023-03-05T00:27:04.334Z,4142.3
2023-03-05T00:32:40.134Z,4140.3
2023-03-05T00:38:15.243Z,4143.3
2023-03-05T00:43:50.519Z,4141.4
2023-03-05T00:49:47.219Z,4141.6
2023-03-05T00:55:26.519Z,4142.4
2023-03-05T01:01:02.329Z,4140.1
2023-03-05T01:06:47.264Z,4140.9
2023-03-05T01:12:24.112Z,4141.6
2023-03-05T01:17:59.857Z,4137.8
2023-03-05T01:23:56.784Z,4135.2
2023-03-05T01:29:29.563Z,4136.9
2023-03-05T01:35:05.498Z,4136.6
2023-03-05T01:40:41.327Z,4140.1
2023-03-05T01:46:16.349Z,4136.1
2023-03-05T01:51:52.416Z,4136.4
2023-03-05T01:57:28.954Z,4134.7
2023-03-05T02:03:07.868Z,4130.7
2023-03-05T02:08:45.401Z,4135.1
2023-03-05T02:14:28.736Z,4133.1
2023-03-05T02:20:07.359Z,4131.6
2023-03-05T02:26:04.664Z,4126.4
2023-03-05T02:31:38.369Z,4131.9
2023-03-05T02:37:13.465Z,4131.1
2023-03-05T02:42:48.623Z,4129.9
2023-03-05T02:48:24.516Z,4134.6
2023-03-05T02:53:59.666Z,4127.5
2023-03-05T02:59:36.670Z,4126.7
2023-03-05T03:05:13.143Z,4129.4
2023-03-05T03:10:50.973Z,4126.2
2023-03-05T03:16:27.178Z,4128.4
2023-03-05T03:22:02.793Z,4124.2
2023-03-05T03:27:37.959Z,4124
2023-03-05T03:33:14.363Z,4125.9
2023-03-05T03:38:49.285Z,4122.3
2023-03-05T03:44:25.157Z,4122.3
2023-03-05T03:50:01.696Z,4126.4
2023-03-05T03:55:37.132Z,4122.3
2023-03-05T04:01:14.201Z,4121.7
2023-03-05T04:06:49.833Z,4125.2
2023-03-05T04:12:25.138Z,4121.8
2023-03-05T04:18:03.860Z,4121.5
2023-03-05T04:24:01.543Z,4113.6
2023-03-05T04:29:34.887Z,4118.3
2023-03-05T04:35:11.137Z,4115.6
2023-03-05T04:40:49.446Z,4121
2023-03-05T04:46:25.337Z,4115.5
2023-03-05T04:52:00.745Z,4114.8
2023-03-05T04:57:36.489Z,4116.6
2023-03-05T05:03:12.886Z,4115.3
2023-03-05T05:08:49.177Z,4116.6
2023-03-05T05:14:27.400Z,4112.5
2023-03-05T05:20:06.545Z,4112.3
2023-03-05T05:26:05.237Z,4108.3
2023-03-05T05:31:39.057Z,4111.5
2023-03-05T05:37:14.481Z,4107.6
2023-03-05T05:42:49.599Z,4110.1
2023-03-05T05:48:24.684Z,4109.6
2023-03-05T05:53:59.497Z,4106.9
2023-03-05T05:59:38.714Z,4111.5
2023-03-05T06:05:15.192Z,4109.9
2023-03-05T06:11:12.199Z,4108.6
2023-03-05T06:16:50.097Z,4110.1
2023-03-05T06:22:47.073Z,4103.2
2023-03-05T06:28:25.050Z,4103.8
2023-03-05T06:34:00.973Z,4110.4
2023-03-05T06:39:36.053Z,4104.9
2023-03-05T06:45:11.292Z,4105.6
2023-03-05T06:50:56.031Z,4104.6
2023-03-05T06:56:31.846Z,4116
2023-03-05T07:02:11.307Z,4121.2
2023-03-05T07:07:47.674Z,4124.9
2023-03-05T07:13:23.070Z,4120.8
2023-03-05T07:18:59.235Z,4128.5
2023-03-05T07:24:35.276Z,4141.6
2023-03-05T07:30:10.785Z,4147.8
2023-03-05T07:35:46.791Z,4145
2023-03-05T07:41:23.039Z,4159.7
2023-03-05T07:47:13.120Z,4201.7
2023-03-05T07:52:48.644Z,4181
2023-03-05T07:58:24.164Z,4201.2
2023-03-05T08:04:01.528Z,4172.8
2023-03-05T08:09:37.009Z,4206.4
2023-03-05T08:15:12.208Z,4162.5
2023-03-05T08:20:47.435Z,4188
2023-03-05T08:26:26.076Z,4205.9
2023-03-05T08:32:02.170Z,4172.9
2023-03-05T08:37:39.890Z,4190.2
2023-03-05T08:43:18.360Z,4194.7
2023-03-05T08:48:54.517Z,4197.7
2023-03-05T08:54:30.143Z,4191.7
2023-03-05T09:00:05.653Z,4173.4
2023-03-05T09:05:40.854Z,4193.7
2023-03-05T09:11:18.085Z,4211.1
2023-03-05T09:16:53.074Z,4206.1
2023-03-05T09:22:28.172Z,4185.5
2023-03-05T09:28:03.576Z,4209.9
2023-03-05T09:33:38.909Z,4196
2023-03-05T09:39:14.047Z,4192.4
2023-03-05T09:44:52.453Z,4205.8
2023-03-05T09:50:27.545Z,4209.3
2023-03-05T09:56:02.861Z,4192.7
2023-03-05T10:01:39.447Z,4216.8
2023-03-05T10:07:17.418Z,4183.1
2023-03-05T10:12:53.343Z,4192.2
2023-03-05T10:18:28.820Z,4219.3
2023-03-05T10:24:04.569Z,4190.3
2023-03-05T10:29:39.565Z,4219.7
2023-03-05T10:35:14.939Z,4205.1
2023-03-05T10:40:50.036Z,4206.6
2023-03-05T10:46:25.117Z,4218.8
2023-03-05T10:52:00.146Z,4200.6
2023-03-05T10:57:43.859Z,4204.1
2023-03-05T11:03:19.710Z,4201.2
2023-03-05T11:08:56.732Z,4207.9
2023-03-05T11:14:32.405Z,4193.5
2023-03-05T11:20:08.003Z,4211.6
2023-03-05T11:25:43.053Z,4191.2
2023-03-05T11:31:20.439Z,4215.8
2023-03-05T11:36:56.076Z,4199.2
2023-03-05T11:42:32.507Z,4199.1
2023-03-05T11:48:08.327Z,4214.6
2023-03-05T11:53:43.237Z,4219.5
2023-03-05T11:59:19.958Z,4214.6
2023-03-05T12:04:56.772Z,4222.5
2023-03-05T12:10:31.796Z,4205.8
2023-03-05T12:16:08.024Z,4217.3
2023-03-05T12:21:44.528Z,4218.3
2023-03-05T12:27:19.887Z,4216
2023-03-05T12:32:55.903Z,4209.8
2023-03-05T12:38:31.235Z,4214.6
2023-03-05T12:44:07.598Z,4218.7
2023-03-05T12:49:42.856Z,4214.6
2023-03-05T12:55:18.970Z,4224.9
2023-03-05T13:00:55.291Z,4206.4
2023-03-05T13:06:31.704Z,4198.7
2023-03-05T13:12:08.065Z,4203.9
2023-03-05T13:17:47.496Z,4211.3
2023-03-05T13:23:44.906Z,4224.4
2023-03-05T13:29:24.053Z,4211.6
2023-03-05T13:35:14.769Z,4210.1
2023-03-05T13:41:15.971Z,4208.4
2023-03-05T13:47:00.525Z,4219.2
2023-03-05T13:53:58.353Z,4210.8
2023-03-05T13:59:35.350Z,4207.1
2023-03-05T14:05:16.966Z,4199.7
2023-03-05T14:10:52.444Z,4217
2023-03-05T14:16:28.843Z,4210.4
2023-03-05T14:22:04.334Z,4224.7
2023-03-05T14:27:43.377Z,4212
2023-03-05T14:33:23.394Z,4216.5
2023-03-05T14:39:09.112Z,4227.4
2023-03-05T14:44:50.254Z,4214
2023-03-05T14:50:28.268Z,4223.8
2023-03-05T14:56:15.512Z,4216
2023-03-05T15:01:57.094Z,4215.6
2023-03-05T15:07:48.401Z,4218.8
2023-03-05T15:13:55.767Z,4213.1
2023-03-05T15:19:43.506Z,4225.4
2023-03-05T15:25:19.264Z,4223.8
2023-03-05T15:31:01.730Z,4226.9
2023-03-05T15:37:05.224Z,4219.8
2023-03-05T15:42:41.716Z,4218.7
2023-03-05T15:48:16.917Z,4217.1
2023-03-05T15:53:52.243Z,4214.1
2023-03-05T15:59:29.069Z,4230.2
2023-03-05T16:05:04.249Z,4204.6
2023-03-05T16:10:42.367Z,4196.7
2023-03-05T16:16:20.293Z,4202.2
2023-03-05T16:21:55.290Z,4195.9
2023-03-05T16:27:30.663Z,4195.4
2023-03-05T16:33:13.144Z,4197.7
2023-03-05T16:39:15.119Z,4197.7
2023-03-05T16:44:50.303Z,4195.2
2023-03-05T16:50:46.764Z,4195.9
2023-03-05T16:56:21.606Z,4199.9
2023-03-05T17:02:00.640Z,4199.1
2023-03-05T17:07:41.471Z,4195.5
2023-03-05T17:13:19.001Z,4191.5
2023-03-05T17:18:53.786Z,4188.8
2023-03-05T17:24:51.010Z,4183
2023-03-05T17:30:35.649Z,4183.8
2023-03-05T17:36:11.948Z,4181.6
2023-03-05T17:41:47.017Z,4183
2023-03-05T17:47:21.724Z,4181
2023-03-05T17:52:56.551Z,4178.3
2023-03-05T17:58:44.530Z,4175.8
2023-03-05T18:04:21.026Z,4180.1
2023-03-05T18:09:56.804Z,4175.3
2023-03-05T18:15:42.064Z,4179.1
2023-03-05T18:21:17.332Z,4174.1
2023-03-05T18:26:52.195Z,4173.9
2023-03-05T18:32:31.255Z,4172.4
2023-03-05T18:38:07.485Z,4173.6
2023-03-05T18:43:43.436Z,4172.6
2023-03-05T18:49:27.317Z,4169.4
2023-03-05T18:55:10.546Z,4171.9
2023-03-05T19:00:48.404Z,4169.2
2023-03-05T19:08:02.027Z,4169.9
2023-03-05T19:13:48.978Z,4169.2
2023-03-05T19:19:49.505Z,4170.9
2023-03-05T19:25:47.005Z,4166.1
2023-03-05T19:31:20.641Z,4169.9
2023-03-05T19:37:00.599Z,4169.6
2023-03-05T19:42:45.842Z,4166.6
2023-03-05T19:48:50.930Z,4169.1
2023-03-05T19:54:30.021Z,4166.9
2023-03-05T20:00:05.468Z,4168.4
2023-03-05T20:06:31.378Z,4170.6
2023-03-05T20:12:12.941Z,4163.9
2023-03-05T20:17:47.867Z,4165.6
2023-03-05T20:23:47.765Z,4164.4
2023-03-05T20:31:05.585Z,4165.1
2023-03-05T20:36:55.229Z,4162.4
2023-03-05T20:43:35.137Z,4164.9
2023-03-05T20:49:24.746Z,4162.4
2023-03-05T20:55:06.142Z,4161.7
2023-03-05T21:00:50.492Z,4162
2023-03-05T21:06:48.065Z,4163.2
2023-03-05T21:12:29.651Z,4164
2023-03-05T21:18:17.993Z,4166.9
2023-03-05T21:24:17.540Z,4156
2023-03-05T21:29:53.231Z,4161.7
2023-03-05T21:35:30.817Z,4159.2
2023-03-05T21:41:21.072Z,4155.7
2023-03-05T21:47:05.402Z,4159.2
2023-03-05T21:53:16.272Z,4157.4
2023-03-05T21:59:04.745Z,4154.7
2023-03-05T22:05:00.594Z,4157
2023-03-05T22:10:42.181Z,4155.3
2023-03-05T22:16:18.337Z,4154.3
2023-03-05T22:22:01.088Z,4153.8
2023-03-05T22:27:43.232Z,4155.5
2023-03-05T22:33:18.224Z,4153
2023-03-05T22:39:12.786Z,4154
2023-03-05T22:44:51.294Z,4150
2023-03-05T22:50:27.152Z,4152.7
2023-03-05T22:56:02.646Z,4150.6
2023-03-05T23:01:39.065Z,4152
2023-03-05T23:07:14.852Z,4152.5
2023-03-05T23:12:50.048Z,4151.2
2023-03-05T23:18:47.459Z,4151
2023-03-05T23:24:44.538Z,4147.5
2023-03-05T23:30:20.382Z,4150.1
2023-03-05T23:36:33.341Z,4146.6
2023-03-05T23:42:30.687Z,4148.3
2023-03-05T23:48:11.330Z,4147.1
2023-03-05T23:53:47.092Z,4148
2023-03-05T23:59:40.763Z,4148
